createdAt,value
2019-02-09T00:00:47.208Z,47.60
2019-02-09T00:04:52.957Z,47.70
2019-02-09T00:08:59.122Z,48.30
2019-02-09T00:13:05.150Z,48.30
2019-02-09T00:17:10.838Z,48.80
2019-02-09T00:21:16.531Z,48.60
2019-02-09T00:25:24.614Z,49.40
2019-02-09T00:29:30.562Z,49.60
2019-02-09T00:33:37.289Z,49.50
2019-02-09T00:37:43.073Z,49.40
2019-02-09T00:41:48.768Z,49.70
2019-02-09T00:45:54.577Z,49.60
2019-02-09T00:50:00.316Z,50.20
2019-02-09T00:54:06.189Z,50.60
2019-02-09T00:58:11.892Z,50.30
2019-02-09T01:02:17.578Z,50.00
2019-02-09T01:06:23.269Z,49.60
2019-02-09T01:10:31.671Z,50.10
2019-02-09T01:14:37.399Z,49.00
2019-02-09T01:18:43.099Z,49.10
2019-02-09T01:22:49.024Z,49.30
2019-02-09T01:26:54.711Z,49.50
2019-02-09T01:31:00.475Z,49.50
2019-02-09T01:35:10.950Z,49.70
2019-02-09T01:39:16.623Z,49.80
2019-02-09T01:43:22.341Z,49.80
2019-02-09T01:47:28.046Z,50.00
2019-02-09T01:51:33.995Z,50.30
2019-02-09T01:55:39.735Z,50.70
2019-02-09T01:59:45.420Z,50.60
2019-02-09T02:03:51.214Z,50.20
2019-02-09T02:07:57.139Z,49.90
2019-02-09T02:12:02.816Z,49.80
2019-02-09T02:16:08.654Z,49.00
2019-02-09T02:20:26.845Z,48.50
2019-02-09T02:24:32.522Z,48.80
2019-02-09T02:28:38.245Z,47.80
2019-02-09T02:32:43.936Z,48.10
2019-02-09T02:36:52.115Z,47.90
2019-02-09T02:40:57.797Z,47.00
2019-02-09T02:45:03.721Z,46.90
2019-02-09T02:49:09.471Z,46.40
2019-02-09T02:53:16.859Z,46.40
2019-02-09T02:57:22.966Z,45.80
2019-02-09T03:01:30.360Z,45.20
2019-02-09T03:05:37.691Z,44.80
2019-02-09T03:09:43.337Z,44.40
2019-02-09T03:13:49.025Z,44.10
2019-02-09T03:17:55.232Z,43.40
2019-02-09T03:22:00.952Z,42.60
2019-02-09T03:26:06.743Z,41.90
2019-02-09T03:30:19.226Z,42.40
2019-02-09T03:34:24.886Z,42.40
2019-02-09T03:38:30.638Z,42.90
2019-02-09T03:42:36.333Z,44.60
2019-02-09T03:46:42.016Z,45.30
2019-02-09T03:50:47.830Z,45.80
2019-02-09T03:54:53.486Z,47.20
2019-02-09T03:58:59.298Z,49.70
2019-02-09T04:03:05.293Z,51.10
2019-02-09T04:07:10.983Z,52.40
2019-02-09T04:11:16.671Z,56.10
2019-02-09T04:15:27.398Z,59.00
2019-02-09T04:19:33.056Z,62.20
2019-02-09T04:23:38.913Z,65.30
2019-02-09T04:27:44.747Z,67.00
2019-02-09T04:31:50.412Z,67.10
2019-02-09T04:35:56.400Z,67.00
2019-02-09T04:40:02.096Z,67.20
2019-02-09T04:44:07.765Z,69.20
2019-02-09T04:48:13.455Z,70.60
2019-02-09T04:52:19.125Z,71.30
2019-02-09T04:56:24.847Z,72.10
2019-02-09T05:00:32.626Z,71.20
2019-02-09T05:04:38.367Z,71.90
2019-02-09T05:08:44.056Z,72.70
2019-02-09T05:12:49.855Z,72.60
2019-02-09T05:16:55.622Z,72.30
2019-02-09T05:21:01.301Z,73.30
2019-02-09T05:25:11.385Z,73.40
2019-02-09T05:29:17.097Z,74.00
2019-02-09T05:33:22.855Z,74.90
2019-02-09T05:37:28.530Z,74.30
2019-02-09T05:41:34.215Z,75.40
2019-02-09T05:45:40.042Z,75.70
2019-02-09T05:49:45.754Z,75.70
2019-02-09T05:53:52.685Z,76.40
2019-02-09T05:57:58.372Z,76.20
2019-02-09T06:02:04.181Z,76.40
2019-02-09T06:06:09.857Z,75.90
2019-02-09T06:10:19.564Z,75.80
2019-02-09T06:14:25.279Z,75.10
2019-02-09T06:18:30.944Z,75.10
2019-02-09T06:22:36.633Z,74.60
2019-02-09T06:26:42.327Z,74.80
2019-02-09T06:30:47.980Z,75.10
2019-02-09T06:34:53.670Z,75.90
2019-02-09T06:38:59.362Z,75.60
2019-02-09T06:43:05.310Z,75.20
2019-02-09T06:47:10.995Z,75.30
2019-02-09T06:51:16.662Z,75.20
2019-02-09T06:55:22.416Z,74.70
2019-02-09T06:59:28.104Z,74.90
2019-02-09T07:03:33.895Z,75.00
2019-02-09T07:07:39.591Z,74.80
2019-02-09T07:11:45.376Z,74.80
2019-02-09T07:15:51.068Z,74.20
2019-02-09T07:19:56.763Z,73.20
2019-02-09T07:24:02.445Z,72.00
2019-02-09T07:28:08.178Z,71.10
2019-02-09T07:37:02.261Z,70.70
2019-02-09T07:41:07.934Z,70.70
2019-02-09T07:45:20.690Z,70.50
2019-02-09T07:49:26.439Z,70.20
2019-02-09T07:53:32.205Z,70.20
2019-02-09T07:57:37.896Z,71.30
2019-02-09T08:01:43.583Z,71.10
2019-02-09T08:05:49.308Z,70.50
2019-02-09T08:09:55.082Z,69.80
2019-02-09T08:14:00.757Z,69.30
2019-02-09T08:18:09.555Z,70.00
2019-02-09T08:22:15.317Z,70.20
2019-02-09T08:26:21.077Z,71.20
2019-02-09T08:30:31.112Z,71.60
2019-02-09T08:34:36.870Z,70.30
2019-02-09T08:38:42.602Z,69.90
2019-02-09T08:42:48.398Z,69.80
2019-02-09T08:46:54.088Z,69.20
2019-02-09T08:51:04.466Z,68.70
2019-02-09T08:55:10.359Z,67.10
2019-02-09T08:59:16.058Z,65.90
2019-02-09T09:03:23.665Z,63.70
2019-02-09T09:07:29.391Z,52.90
2019-02-09T09:11:35.128Z,54.00
2019-02-09T09:15:51.939Z,56.30
2019-02-09T09:19:57.633Z,57.90
2019-02-09T09:24:03.338Z,54.50
2019-02-09T09:28:09.100Z,54.20
2019-02-09T09:32:14.795Z,54.70
2019-02-09T09:36:20.575Z,48.90
2019-02-09T09:40:36.294Z,45.00
2019-02-09T09:44:42.065Z,47.50
2019-02-09T09:48:47.765Z,48.50
2019-02-09T09:52:53.507Z,46.90
2019-02-09T09:56:59.201Z,45.60
2019-02-09T10:01:05.208Z,49.20
2019-02-09T10:05:11.431Z,53.20
2019-02-09T10:09:17.158Z,56.20
2019-02-09T10:13:22.902Z,60.80
2019-02-09T10:17:28.602Z,63.40
2019-02-09T10:21:34.334Z,60.00
2019-02-09T10:25:40.159Z,56.20
2019-02-09T10:29:45.878Z,53.40
2019-02-09T10:33:51.576Z,51.60
2019-02-09T10:37:57.955Z,53.30
2019-02-09T10:42:03.815Z,52.40
2019-02-09T10:46:09.514Z,49.70
2019-02-09T10:50:23.112Z,49.20
2019-02-09T10:54:28.803Z,51.00
2019-02-09T10:58:34.500Z,51.70
2019-02-09T11:02:40.199Z,52.40
2019-02-09T11:06:45.899Z,51.40
2019-02-09T11:10:51.825Z,52.80
2019-02-09T11:14:57.768Z,52.90
2019-02-09T11:19:03.702Z,52.10
2019-02-09T11:23:09.421Z,52.00
2019-02-09T11:27:15.110Z,50.10
2019-02-09T11:31:20.873Z,46.00
2019-02-09T11:35:26.739Z,46.60
2019-02-09T11:39:32.533Z,45.10
2019-02-09T11:43:38.290Z,46.30
2019-02-09T11:47:44.063Z,46.00
2019-02-09T11:51:50.328Z,47.00
2019-02-09T11:55:56.521Z,48.80
2019-02-09T12:00:02.215Z,49.00
2019-02-09T12:04:09.156Z,50.80
2019-02-09T12:08:14.839Z,47.60
2019-02-09T12:12:20.535Z,48.20
2019-02-09T12:16:26.335Z,46.30
2019-02-09T12:20:32.122Z,44.10
2019-02-09T12:24:37.825Z,42.80
2019-02-09T12:28:43.501Z,45.00
2019-02-09T12:32:49.347Z,44.60
2019-02-09T12:36:55.852Z,44.00
2019-02-09T12:41:03.092Z,43.60
2019-02-09T12:45:13.379Z,44.00
2019-02-09T12:49:19.070Z,42.20
2019-02-09T12:53:24.760Z,41.30
2019-02-09T12:57:30.455Z,40.70
2019-02-09T13:01:36.192Z,38.50
2019-02-09T13:05:42.012Z,39.90
2019-02-09T13:09:48.673Z,41.10
2019-02-09T13:13:54.458Z,43.30
2019-02-09T13:18:00.409Z,44.70
2019-02-09T13:22:06.641Z,45.40
2019-02-09T13:26:12.330Z,46.10
2019-02-09T13:30:27.943Z,47.90
2019-02-09T13:34:33.655Z,48.30
2019-02-09T13:38:39.373Z,48.20
2019-02-09T13:42:45.153Z,47.80
2019-02-09T13:46:50.830Z,47.70
2019-02-09T13:50:56.602Z,47.40
2019-02-09T13:55:02.302Z,48.00
2019-02-09T13:59:08.200Z,47.70
2019-02-09T14:03:13.921Z,47.70
2019-02-09T14:07:19.597Z,49.40
2019-02-09T14:11:25.278Z,50.10
2019-02-09T14:15:40.122Z,50.30
2019-02-09T14:19:45.883Z,50.80
2019-02-09T14:23:51.682Z,50.40
2019-02-09T14:27:59.428Z,51.60
2019-02-09T14:32:05.307Z,52.10
2019-02-09T14:36:11.083Z,53.40
2019-02-09T14:40:26.264Z,54.00
2019-02-09T14:44:31.961Z,52.70
2019-02-09T14:48:38.680Z,52.10
2019-02-09T14:52:44.521Z,52.50
2019-02-09T14:56:51.465Z,51.70
2019-02-09T15:00:57.277Z,51.90
2019-02-09T15:05:03.219Z,52.20
2019-02-09T15:09:09.661Z,52.30
2019-02-09T15:13:16.059Z,52.60
2019-02-09T15:17:21.753Z,52.50
2019-02-09T15:21:27.449Z,52.00
2019-02-09T15:25:33.322Z,52.00
2019-02-09T15:29:39.021Z,52.00
2019-02-09T15:33:45.262Z,52.60
2019-02-09T15:37:51.067Z,52.60
2019-02-09T15:41:56.800Z,52.70
2019-02-09T15:46:02.686Z,53.40
2019-02-09T15:50:15.228Z,53.40
2019-02-09T15:54:20.952Z,53.40
2019-02-09T15:58:26.670Z,54.30
2019-02-09T16:02:32.353Z,54.30
2019-02-09T16:06:38.037Z,54.60
2019-02-09T16:10:43.857Z,54.30
2019-02-09T16:14:49.554Z,54.10
2019-02-09T16:18:55.282Z,54.10
2019-02-09T16:23:01.046Z,54.30
2019-02-09T16:27:06.811Z,54.20
2019-02-09T16:31:12.513Z,54.70
2019-02-09T16:35:21.585Z,54.80
2019-02-09T16:39:27.354Z,55.00
2019-02-09T16:43:33.072Z,54.50
2019-02-09T16:47:38.944Z,53.80
2019-02-09T16:51:44.659Z,53.80
2019-02-09T16:55:50.344Z,53.10
2019-02-09T16:59:56.050Z,53.70
2019-02-09T17:04:01.748Z,53.10
2019-02-09T17:08:07.764Z,52.80
2019-02-09T17:12:13.511Z,52.90
2019-02-09T17:16:19.251Z,52.20
2019-02-09T17:20:25.544Z,52.30
2019-02-09T17:24:31.244Z,52.00
2019-02-09T17:28:36.938Z,52.90
2019-02-09T17:32:42.933Z,52.00
2019-02-09T17:36:48.646Z,51.10
2019-02-09T17:40:54.337Z,51.50
2019-02-09T17:45:00.005Z,51.40
2019-02-09T17:49:06.128Z,51.80
2019-02-09T17:53:12.235Z,51.40
2019-02-09T17:57:17.931Z,51.00
2019-02-09T18:01:23.614Z,49.40
2019-02-09T18:05:29.341Z,49.30
2019-02-09T18:09:36.000Z,49.40
2019-02-09T18:13:41.697Z,49.70
2019-02-09T18:17:47.794Z,49.40
2019-02-09T18:21:53.563Z,49.40
2019-02-09T18:25:59.994Z,49.90
2019-02-09T18:35:20.012Z,49.10
2019-02-09T18:39:25.774Z,49.80
2019-02-09T18:43:32.545Z,49.50
2019-02-09T18:47:38.299Z,49.30
2019-02-09T18:51:45.227Z,49.10
2019-02-09T18:55:51.016Z,49.40
2019-02-09T18:59:56.693Z,49.70
2019-02-09T19:04:02.374Z,50.20
2019-02-09T19:08:09.300Z,50.20
2019-02-09T19:12:14.993Z,50.30
2019-02-09T19:16:21.884Z,50.20
2019-02-09T19:20:34.167Z,52.80
2019-02-09T19:24:39.828Z,54.20
2019-02-09T19:28:45.526Z,55.30
2019-02-09T19:32:51.932Z,56.80
2019-02-09T19:36:57.812Z,55.60
2019-02-09T19:41:03.518Z,54.60
2019-02-09T19:45:21.397Z,52.80
2019-02-09T19:49:28.156Z,52.20
2019-02-09T19:53:33.860Z,51.30
2019-02-09T19:57:39.681Z,51.30
2019-02-09T20:01:45.391Z,51.20
2019-02-09T20:05:51.066Z,51.30
2019-02-09T20:10:17.658Z,51.30
2019-02-09T20:14:23.345Z,51.40
2019-02-09T20:18:29.042Z,51.00
2019-02-09T20:22:37.664Z,51.30
2019-02-09T20:26:43.339Z,52.10
2019-02-09T20:30:49.094Z,52.80
2019-02-09T20:34:54.945Z,53.00
2019-02-09T20:39:04.650Z,53.20
2019-02-09T20:43:13.373Z,53.40
2019-02-09T20:47:19.110Z,53.70
2019-02-09T20:51:24.811Z,54.20
2019-02-09T20:55:30.520Z,53.90
2019-02-09T20:59:36.230Z,53.90
2019-02-09T21:04:01.284Z,54.30
2019-02-09T21:08:19.290Z,54.80
2019-02-09T21:12:25.013Z,54.70
2019-02-09T21:16:30.728Z,54.20
2019-02-09T21:20:36.614Z,54.10
2019-02-09T21:24:42.282Z,54.50
2019-02-09T21:28:47.998Z,55.80
2019-02-09T21:32:54.101Z,55.40
2019-02-09T21:36:59.814Z,56.10
2019-02-09T21:41:17.258Z,55.70
2019-02-09T21:45:25.108Z,55.40
2019-02-09T21:49:32.405Z,55.10
2019-02-09T21:53:39.324Z,55.60
2019-02-09T21:57:45.106Z,56.00
2019-02-09T22:01:50.802Z,56.40
2019-02-09T22:05:56.581Z,56.60
2019-02-09T22:10:02.254Z,56.60
2019-02-09T22:14:08.028Z,56.70
2019-02-09T22:18:13.693Z,57.10
2019-02-09T22:22:19.396Z,57.50
2019-02-09T22:26:25.119Z,57.50
2019-02-09T22:30:32.159Z,57.30
2019-02-09T22:34:37.830Z,57.10
2019-02-09T22:39:03.258Z,57.00
2019-02-09T22:43:10.949Z,57.40
2019-02-09T22:47:16.653Z,57.40
2019-02-09T22:51:22.427Z,57.50
2019-02-09T22:55:31.396Z,57.10
2019-02-09T22:59:37.114Z,57.20
2019-02-09T23:03:59.062Z,57.00
2019-02-09T23:08:04.761Z,59.10
2019-02-09T23:12:10.483Z,58.30
2019-02-09T23:16:16.161Z,57.60
2019-02-09T23:20:21.866Z,57.60
2019-02-09T23:24:27.646Z,57.60
2019-02-09T23:28:33.329Z,57.30
2019-02-09T23:44:18.084Z,58.00
2019-02-09T23:48:23.744Z,58.60
2019-02-09T23:52:29.489Z,58.90
2019-02-09T23:57:17.024Z,59.30
